Time;durP1;ratioP1;P1;durP2;ratioP2;P2;SDS_P1;SDS_P2;PMS_P1;PMS_P2;Temp;Humidity;BMP_temperature;BMP_pressure;BME280_temperature;BME280_humidity;BME280_pressure;Samples;Min_cycle;Max_cycle;Signal;HPM_P1;HPM_P2
2022/01/28 00:01:37;;;;;;;;;;;8.10;95.60;;;;;;5029738;28;19909;-77
2022/01/28 00:04:12;;;;;;;;;;;8.20;95.50;;;;;;5014279;28;20143;-76
2022/01/28 00:06:38;;;;;;;;;;;8.20;95.40;;;;;;5029612;28;19905;-78
2022/01/28 00:09:03;;;;;;;;;;;8.20;95.40;;;;;;5029338;28;20071;-77
2022/01/28 00:11:29;;;;;;;;;;;8.20;95.40;;;;;;5030742;28;19928;-77
2022/01/28 00:14:05;;;;;;;;;;;8.20;95.40;;;;;;5030647;28;20378;-77
2022/01/28 00:38:28;;;;;;;;;;;8.40;95.40;;;;;;5030597;28;19941;-77
2022/01/28 00:40:54;;;;;;;;;;;8.40;95.40;;;;;;5030556;28;19905;-76
2022/01/28 00:43:19;;;;;;;;;;;8.50;95.40;;;;;;5029032;28;19920;-78
2022/01/28 00:45:45;;;;;;;;;;;8.50;95.40;;;;;;5028986;28;19916;-78
2022/01/28 00:48:10;;;;;;;;;;;8.50;95.30;;;;;;5028723;28;20083;-77
2022/01/28 00:50:36;;;;;;;;;;;8.50;95.30;;;;;;5029980;28;19905;-76
2022/01/28 00:53:02;;;;;;;;;;;8.40;95.30;;;;;;5030445;28;19912;-77
2022/01/28 00:55:27;;;;;;;;;;;8.30;95.50;;;;;;5030663;28;19905;-76
2022/01/28 00:57:54;;;;;;;;;;;8.20;95.70;;;;;;5029953;28;19931;-76
2022/01/28 01:00:20;;;;;;;;;;;8.20;95.80;;;;;;5028588;28;19928;-77
2022/01/28 01:02:45;;;;;;;;;;;8.30;95.90;;;;;;5029749;28;19992;-76
2022/01/28 01:05:11;;;;;;;;;;;8.30;95.80;;;;;;5028442;28;19916;-76
2022/01/28 01:07:37;;;;;;;;;;;8.40;95.80;;;;;;5029781;28;19905;-77
2022/01/28 01:10:04;;;;;;;;;;;8.40;95.90;;;;;;5029655;28;20004;-79
2022/01/28 01:12:31;;;;;;;;;;;8.40;95.90;;;;;;5029689;28;19908;-78
2022/01/28 01:14:57;;;;;;;;;;;8.40;95.90;;;;;;5028195;28;20004;-77
2022/01/28 01:17:37;;;;;;;;;;;8.40;95.90;;;;;;5028227;28;20000;-76
2022/01/28 01:22:51;;;;;;;;;;;8.40;95.90;;;;;;5029492;28;19992;-77
2022/01/28 01:25:24;;;;;;;;;;;8.40;96.00;;;;;;5029545;28;19981;-78
2022/01/28 01:27:54;;;;;;;;;;;8.40;96.00;;;;;;5029305;28;20351;-76
2022/01/28 01:30:20;;;;;;;;;;;8.50;95.80;;;;;;5027857;28;19913;-78
2022/01/28 01:32:45;;;;;;;;;;;8.50;95.80;;;;;;5029262;28;20374;-76
2022/01/28 01:35:11;;;;;;;;;;;8.50;95.70;;;;;;5029234;28;19940;-77
2022/01/28 01:37:36;;;;;;;;;;;8.50;95.80;;;;;;5028104;28;19944;-77
2022/01/28 01:40:02;;;;;;;;;;;8.50;95.90;;;;;;5029061;28;20317;-78
2022/01/28 01:42:42;;;;;;;;;;;8.50;95.90;;;;;;5027744;28;19905;-77
2022/01/28 01:53:21;;;;;;;;;;;8.40;95.90;;;;;;5029156;28;20030;-77
2022/01/28 01:55:47;;;;;;;;;;;8.30;95.70;;;;;;5027862;28;20399;-77
2022/01/28 01:58:13;;;;;;;;;;;8.30;95.70;;;;;;5028803;28;19917;-77
2022/01/28 02:00:38;;;;;;;;;;;8.20;95.70;;;;;;5028953;28;19922;-78
2022/01/28 02:03:04;;;;;;;;;;;8.10;95.70;;;;;;5028661;28;20366;-78
2022/01/28 02:05:29;;;;;;;;;;;8.10;95.80;;;;;;5012081;28;19920;-78
2022/01/28 02:07:55;;;;;;;;;;;8.10;95.90;;;;;;5027539;28;19913;-77
2022/01/28 02:10:20;;;;;;;;;;;8.10;95.90;;;;;;5010937;28;19909;-79
2022/01/28 02:12:50;;;;;;;;;;;8.00;95.80;;;;;;5028730;28;19939;-76
2022/01/28 02:15:16;;;;;;;;;;;8.00;95.90;;;;;;5028765;28;19909;-77
2022/01/28 02:17:41;;;;;;;;;;;7.90;95.80;;;;;;5028470;28;19920;-78
2022/01/28 02:20:09;;;;;;;;;;;7.90;95.80;;;;;;5028425;28;19909;-77
2022/01/28 02:22:35;;;;;;;;;;;7.80;95.80;;;;;;5028579;28;20244;-78
2022/01/28 02:25:01;;;;;;;;;;;7.70;96.00;;;;;;5027182;28;19928;-77
2022/01/28 02:27:27;;;;;;;;;;;7.70;96.10;;;;;;5027092;28;20363;-76
2022/01/28 02:29:54;;;;;;;;;;;7.70;96.20;;;;;;5026791;28;19905;-76
2022/01/28 02:32:20;;;;;;;;;;;7.70;96.20;;;;;;5027093;28;19917;-78
2022/01/28 02:34:46;;;;;;;;;;;7.70;96.10;;;;;;5026995;28;20331;-78
2022/01/28 02:37:11;;;;;;;;;;;7.70;95.90;;;;;;5026984;28;19909;-77
2022/01/28 02:39:37;;;;;;;;;;;7.70;95.80;;;;;;5028054;28;19959;-76
2022/01/28 02:42:16;;;;;;;;;;;7.60;95.70;;;;;;5028629;28;20027;-77
2022/01/28 02:44:47;;;;;;;;;;;7.50;95.60;;;;;;5028235;28;19909;-78
2022/01/28 02:47:17;;;;;;;;;;;7.40;95.60;;;;;;5026865;28;20279;-78
2022/01/28 02:49:44;;;;;;;;;;;7.30;95.50;;;;;;5028215;28;19948;-77
2022/01/28 02:52:18;;;;;;;;;;;7.20;95.60;;;;;;5028132;28;20017;-77
2022/01/28 02:54:47;;;;;;;;;;;7.00;95.50;;;;;;5032264;28;20312;-78
2022/01/28 02:57:15;;;;;;;;;;;6.90;95.60;;;;;;5034716;28;19904;-76
2022/01/28 02:59:40;;;;;;;;;;;6.90;95.60;;;;;;5033240;28;20012;-77
2022/01/28 03:02:06;;;;;;;;;;;6.80;95.60;;;;;;5033422;28;20000;-78
2022/01/28 03:06:57;;;;;;;;;;;6.60;95.60;;;;;;5033582;28;20008;-76
2022/01/28 03:09:23;;;;;;;;;;;6.60;95.70;;;;;;5033219;28;19930;-77
2022/01/28 03:12:00;;;;;;;;;;;6.50;95.70;;;;;;5033105;28;19909;-78
2022/01/28 03:14:58;;;;;;;;;;;6.50;95.70;;;;;;5033242;28;19909;-77
2022/01/28 03:17:52;;;;;;;;;;;6.50;95.70;;;;;;5034195;28;19909;-76
2022/01/28 03:22:43;;;;;;;;;;;6.50;96.00;;;;;;5034694;28;19967;-77
2022/01/28 03:25:09;;;;;;;;;;;6.60;96.10;;;;;;5034610;28;20130;-78
2022/01/28 03:30:03;;;;;;;;;;;6.90;96.10;;;;;;5034668;28;19959;-77
2022/01/28 03:32:29;;;;;;;;;;;7.10;95.90;;;;;;5034175;28;19942;-78
2022/01/28 03:34:55;;;;;;;;;;;7.10;95.80;;;;;;5033041;28;19913;-76
2022/01/28 03:37:21;;;;;;;;;;;7.10;95.80;;;;;;5034838;28;19960;-77
2022/01/28 03:39:47;;;;;;;;;;;7.10;95.80;;;;;;5033865;28;19912;-76
2022/01/28 03:42:12;;;;;;;;;;;7.10;95.90;;;;;;5033135;28;19909;-78
2022/01/28 03:44:38;;;;;;;;;;;7.10;95.90;;;;;;5032878;28;19974;-77
2022/01/28 03:47:04;;;;;;;;;;;7.10;96.00;;;;;;5032880;28;19924;-77
2022/01/28 03:49:29;;;;;;;;;;;7.20;96.10;;;;;;5016632;28;19912;-77
2022/01/28 03:51:55;;;;;;;;;;;7.20;95.90;;;;;;5016408;28;19939;-77
2022/01/28 03:54:20;;;;;;;;;;;7.10;95.80;;;;;;5033107;28;20043;-78
2022/01/28 03:56:46;;;;;;;;;;;7.10;95.90;;;;;;5034276;28;19913;-78
2022/01/28 03:59:15;;;;;;;;;;;7.20;96.10;;;;;;5016414;28;19925;-78
2022/01/28 04:01:44;;;;;;;;;;;7.30;96.10;;;;;;5016317;28;19909;-77
2022/01/28 04:12:41;;;;;;;;;;;7.60;96.00;;;;;;4969859;28;19916;-78
2022/01/28 04:15:47;;;;;;;;;;;7.70;96.00;;;;;;5021915;28;19916;-77
2022/01/28 04:18:10;;;;;;;;;;;7.80;96.00;;;;;;5030520;28;20329;-77
2022/01/28 04:20:35;;;;;;;;;;;7.90;95.90;;;;;;5012922;28;19909;-77
2022/01/28 04:23:01;;;;;;;;;;;8.00;95.90;;;;;;5029462;28;20359;-77
2022/01/28 04:25:26;;;;;;;;;;;8.00;95.90;;;;;;5029561;28;19913;-77
2022/01/28 04:27:52;;;;;;;;;;;8.10;95.90;;;;;;5029261;28;19905;-78
2022/01/28 04:30:17;;;;;;;;;;;8.10;95.90;;;;;;5030476;28;19916;-77
2022/01/28 04:32:46;;;;;;;;;;;8.10;95.90;;;;;;5030522;28;19908;-77
2022/01/28 04:35:11;;;;;;;;;;;8.20;95.90;;;;;;5029106;28;19909;-77
2022/01/28 04:37:57;;;;;;;;;;;8.20;95.90;;;;;;5030454;28;19924;-77
2022/01/28 04:40:29;;;;;;;;;;;8.20;95.90;;;;;;5030204;28;20345;-78
2022/01/28 04:43:17;;;;;;;;;;;8.30;95.90;;;;;;5030351;28;19994;-76
2022/01/28 04:45:54;;;;;;;;;;;8.20;95.80;;;;;;5015598;28;20339;-77
2022/01/28 04:56:17;;;;;;;;;;;7.90;96.10;;;;;;5030018;28;19909;-77
2022/01/28 05:27:10;;;;;;;;;;;8.00;96.90;;;;;;5029576;28;20261;-77
2022/01/28 05:29:36;;;;;;;;;;;8.00;97.00;;;;;;5028532;28;20350;-77
2022/01/28 05:32:02;;;;;;;;;;;8.10;97.10;;;;;;5029334;28;19932;-78
2022/01/28 05:34:27;;;;;;;;;;;8.10;97.20;;;;;;5028448;28;19980;-77
2022/01/28 05:36:54;;;;;;;;;;;8.20;97.30;;;;;;5028354;28;19909;-77
2022/01/28 05:39:19;;;;;;;;;;;8.20;97.30;;;;;;5027934;28;19917;-78
2022/01/28 05:41:45;;;;;;;;;;;8.30;97.30;;;;;;5027930;28;20017;-77
2022/01/28 05:44:10;;;;;;;;;;;8.40;97.30;;;;;;5029334;28;20030;-77
2022/01/28 05:46:36;;;;;;;;;;;8.50;97.40;;;;;;5028909;28;20267;-77
2022/01/28 05:49:01;;;;;;;;;;;8.50;97.30;;;;;;5027756;28;19917;-77
2022/01/28 05:51:27;;;;;;;;;;;8.60;97.30;;;;;;5027828;28;20386;-77
2022/01/28 05:53:59;;;;;;;;;;;8.60;97.30;;;;;;5028964;28;20421;-78
2022/01/28 05:56:25;;;;;;;;;;;8.70;97.30;;;;;;5028769;28;19960;-77
2022/01/28 05:58:51;;;;;;;;;;;8.70;97.40;;;;;;5027349;28;19983;-77
2022/01/28 06:01:17;;;;;;;;;;;8.70;97.40;;;;;;5011302;28;19909;-75
2022/01/28 06:03:44;;;;;;;;;;;8.70;97.40;;;;;;5011071;28;20408;-78
2022/01/28 06:06:18;;;;;;;;;;;8.70;97.30;;;;;;5027499;28;19917;-77
2022/01/28 06:08:48;;;;;;;;;;;8.80;97.30;;;;;;5027687;28;19909;-77
2022/01/28 06:11:14;;;;;;;;;;;8.80;97.40;;;;;;5028702;28;20078;-76
2022/01/28 06:13:40;;;;;;;;;;;8.70;97.40;;;;;;5027295;28;19997;-77
2022/01/28 06:16:05;;;;;;;;;;;8.70;97.40;;;;;;5028435;28;20343;-76
2022/01/28 06:18:31;;;;;;;;;;;8.70;97.40;;;;;;5028451;28;20545;-77
2022/01/28 06:20:57;;;;;;;;;;;8.70;97.40;;;;;;5028871;28;19941;-76
2022/01/28 06:23:23;;;;;;;;;;;8.80;97.50;;;;;;5028462;28;20283;-76
2022/01/28 06:25:49;;;;;;;;;;;8.80;97.50;;;;;;5028215;28;19905;-77
2022/01/28 06:28:14;;;;;;;;;;;8.80;97.50;;;;;;5026491;28;20426;-74
2022/01/28 06:30:40;;;;;;;;;;;8.90;97.80;;;;;;5028063;28;19915;-76
2022/01/28 06:33:05;;;;;;;;;;;8.90;97.50;;;;;;5027154;28;19948;-77
2022/01/28 06:35:31;;;;;;;;;;;8.90;97.60;;;;;;5027025;28;19913;-79
2022/01/28 06:37:57;;;;;;;;;;;8.90;97.60;;;;;;5028201;28;19909;-78
2022/01/28 06:40:22;;;;;;;;;;;8.90;97.60;;;;;;5026639;28;20423;-76
2022/01/28 06:42:48;;;;;;;;;;;8.90;97.60;;;;;;5028129;28;19937;-77
2022/01/28 06:45:14;;;;;;;;;;;8.90;97.60;;;;;;5028792;28;19905;-76
2022/01/28 06:47:40;;;;;;;;;;;8.90;97.60;;;;;;5027702;28;19999;-77
2022/01/28 06:50:07;;;;;;;;;;;9.00;97.60;;;;;;5026472;28;19913;-77
2022/01/28 06:52:33;;;;;;;;;;;8.90;97.50;;;;;;5028114;28;19959;-77
2022/01/28 06:55:01;;;;;;;;;;;8.90;97.60;;;;;;5026686;28;19915;-77
2022/01/28 06:57:27;;;;;;;;;;;8.90;97.60;;;;;;5026814;28;19913;-76
2022/01/28 06:59:53;;;;;;;;;;;8.90;97.70;;;;;;5026444;28;19909;-78
2022/01/28 07:02:18;;;;;;;;;;;8.90;97.70;;;;;;5026844;28;19967;-76
2022/01/28 07:04:44;;;;;;;;;;;8.90;97.80;;;;;;5026770;28;19915;-77
2022/01/28 07:07:09;;;;;;;;;;;8.90;97.80;;;;;;5010284;28;20389;-77
2022/01/28 07:09:35;;;;;;;;;;;8.90;97.90;;;;;;5027846;28;19920;-77
2022/01/28 07:12:02;;;;;;;;;;;9.00;98.00;;;;;;5026219;28;19916;-77
2022/01/28 07:14:27;;;;;;;;;;;9.00;98.10;;;;;;5027319;28;20339;-78
2022/01/28 07:16:53;;;;;;;;;;;9.00;98.10;;;;;;5027656;28;19912;-77
2022/01/28 07:19:18;;;;;;;;;;;9.00;98.10;;;;;;5026048;28;19992;-76
2022/01/28 07:21:44;;;;;;;;;;;9.00;98.20;;;;;;5026251;28;20446;-76
2022/01/28 07:24:09;;;;;;;;;;;9.00;98.30;;;;;;5027612;28;20378;-78
2022/01/28 07:26:38;;;;;;;;;;;9.00;98.30;;;;;;5009717;28;19916;-76
2022/01/28 07:29:04;;;;;;;;;;;9.00;98.30;;;;;;5027200;28;20002;-77
2022/01/28 07:31:29;;;;;;;;;;;9.00;98.50;;;;;;5027846;28;19960;-78
2022/01/28 07:33:55;;;;;;;;;;;8.90;98.50;;;;;;5029644;28;19909;-76
2022/01/28 07:36:20;;;;;;;;;;;8.90;98.60;;;;;;5027268;28;19913;-77
2022/01/28 07:38:46;;;;;;;;;;;8.90;98.80;;;;;;5025622;28;20329;-78
2022/01/28 07:41:12;;;;;;;;;;;8.90;98.90;;;;;;5028876;28;19950;-77
2022/01/28 07:43:39;;;;;;;;;;;8.80;99.00;;;;;;5031115;28;20294;-78
2022/01/28 07:46:05;;;;;;;;;;;8.80;99.00;;;;;;5031012;28;19920;-77
2022/01/28 07:48:31;;;;;;;;;;;8.80;99.10;;;;;;5030508;28;20047;-77
2022/01/28 07:50:57;;;;;;;;;;;8.80;99.20;;;;;;5029323;28;19993;-76
2022/01/28 07:53:22;;;;;;;;;;;8.80;99.20;;;;;;5030679;28;19955;-77
2022/01/28 07:55:48;;;;;;;;;;;8.80;99.10;;;;;;5029107;28;19924;-78
2022/01/28 07:58:13;;;;;;;;;;;8.80;99.10;;;;;;5030330;28;20037;-76
2022/01/28 08:00:39;;;;;;;;;;;8.70;99.10;;;;;;5012775;28;19920;-77
2022/01/28 08:03:04;;;;;;;;;;;8.70;99.20;;;;;;5030538;28;20381;-75
2022/01/28 08:05:30;;;;;;;;;;;8.60;99.30;;;;;;5030592;28;20396;-76
2022/01/28 08:07:58;;;;;;;;;;;8.70;99.70;;;;;;5029467;28;19955;-77
2022/01/28 08:10:24;;;;;;;;;;;8.70;99.60;;;;;;5030443;28;20427;-77
2022/01/28 08:12:51;;;;;;;;;;;8.70;99.60;;;;;;5030469;28;20003;-76
2022/01/28 08:15:17;;;;;;;;;;;8.80;99.70;;;;;;5030576;28;19905;-76
2022/01/28 08:17:43;;;;;;;;;;;8.80;99.60;;;;;;5028969;28;19916;-77
2022/01/28 08:20:09;;;;;;;;;;;8.90;99.60;;;;;;5028758;28;20260;-77
2022/01/28 08:22:44;;;;;;;;;;;8.90;99.60;;;;;;5030203;28;19940;-76
2022/01/28 08:25:10;;;;;;;;;;;9.00;99.60;;;;;;5012271;28;20554;-79
2022/01/28 08:27:35;;;;;;;;;;;9.00;99.70;;;;;;5029827;28;20003;-79
2022/01/28 08:30:01;;;;;;;;;;;9.10;99.70;;;;;;5029918;28;19909;-77
2022/01/28 08:32:27;;;;;;;;;;;9.10;99.70;;;;;;5028802;28;19909;-79
2022/01/28 08:34:54;;;;;;;;;;;9.20;99.70;;;;;;5030057;28;19905;-78
2022/01/28 08:37:19;;;;;;;;;;;9.20;99.70;;;;;;5012677;28;19955;-78
2022/01/28 08:39:45;;;;;;;;;;;9.20;99.70;;;;;;5029796;28;20001;-77
2022/01/28 08:42:10;;;;;;;;;;;9.20;99.70;;;;;;5029847;28;19980;-77
2022/01/28 08:44:36;;;;;;;;;;;9.20;99.80;;;;;;5011904;28;19913;-78
2022/01/28 08:47:02;;;;;;;;;;;9.20;99.80;;;;;;5029480;28;20041;-79
2022/01/28 08:49:27;;;;;;;;;;;9.20;99.90;;;;;;5027884;28;19905;-76
2022/01/28 08:51:53;;;;;;;;;;;9.30;99.90;;;;;;5027503;28;19917;-76
2022/01/28 08:54:18;;;;;;;;;;;9.30;99.90;;;;;;5029630;28;19917;-79
2022/01/28 08:56:45;;;;;;;;;;;9.30;99.90;;;;;;5027874;28;19929;-77
2022/01/28 08:59:11;;;;;;;;;;;9.40;99.90;;;;;;5028943;28;19916;-78
2022/01/28 09:01:36;;;;;;;;;;;9.40;99.90;;;;;;5027254;28;20004;-78
2022/01/28 09:04:02;;;;;;;;;;;9.50;99.90;;;;;;5029076;28;19917;-77
2022/01/28 09:06:27;;;;;;;;;;;9.50;99.90;;;;;;5027781;28;19904;-77
2022/01/28 09:08:55;;;;;;;;;;;9.50;99.90;;;;;;5028720;28;19916;-76
2022/01/28 09:13:47;;;;;;;;;;;9.70;99.90;;;;;;5027800;28;19916;-77
2022/01/28 09:16:12;;;;;;;;;;;9.70;99.90;;;;;;5027546;28;20359;-78
2022/01/28 09:18:38;;;;;;;;;;;9.80;99.90;;;;;;5028984;28;20112;-78
2022/01/28 09:21:04;;;;;;;;;;;9.80;99.90;;;;;;5027563;28;19934;-81
2022/01/28 09:23:29;;;;;;;;;;;9.90;99.90;;;;;;5011307;28;20305;-76
2022/01/28 09:25:55;;;;;;;;;;;9.90;99.90;;;;;;5026758;28;19913;-79
2022/01/28 09:28:20;;;;;;;;;;;10.00;99.90;;;;;;5026704;28;19916;-78
2022/01/28 09:30:46;;;;;;;;;;;10.10;99.90;;;;;;5026744;28;20155;-77
2022/01/28 09:33:12;;;;;;;;;;;10.10;99.90;;;;;;5028287;28;19967;-78
2022/01/28 09:35:37;;;;;;;;;;;10.10;99.90;;;;;;5026753;28;19968;-78
2022/01/28 09:38:03;;;;;;;;;;;10.10;99.90;;;;;;5026775;28;19916;-78
2022/01/28 09:40:29;;;;;;;;;;;10.20;99.90;;;;;;5025782;28;19928;-77
2022/01/28 09:42:55;;;;;;;;;;;10.30;99.90;;;;;;5027926;28;19940;-78
2022/01/28 09:45:23;;;;;;;;;;;10.30;99.90;;;;;;5026913;28;19916;-78
2022/01/28 09:47:53;;;;;;;;;;;10.30;99.90;;;;;;5027605;28;19917;-78
2022/01/28 09:50:21;;;;;;;;;;;10.30;99.90;;;;;;5026319;28;19932;-78
2022/01/28 09:52:46;;;;;;;;;;;10.40;99.90;;;;;;5030309;28;19938;-78
2022/01/28 09:55:12;;;;;;;;;;;10.40;99.90;;;;;;5027101;28;19916;-78
2022/01/28 09:57:38;;;;;;;;;;;10.40;99.90;;;;;;5026404;28;19913;-79
2022/01/28 10:00:05;;;;;;;;;;;10.40;99.90;;;;;;5026653;28;19959;-77
2022/01/28 10:02:47;;;;;;;;;;;10.40;99.90;;;;;;5026779;28;19909;-75
2022/01/28 10:05:32;;;;;;;;;;;10.40;99.90;;;;;;5025002;28;19919;-77
2022/01/28 10:08:18;;;;;;;;;;;10.40;99.90;;;;;;5024677;28;19956;-77
2022/01/28 10:10:47;;;;;;;;;;;10.40;99.90;;;;;;5024324;28;19913;-78
2022/01/28 10:13:16;;;;;;;;;;;10.60;99.90;;;;;;5026451;28;20522;-79
2022/01/28 10:15:52;;;;;;;;;;;10.90;99.90;;;;;;5029719;28;20275;-79
2022/01/28 10:18:17;;;;;;;;;;;11.10;99.90;;;;;;5027802;28;20409;-79
2022/01/28 10:20:53;;;;;;;;;;;11.30;99.90;;;;;;5012270;28;19913;-76
2022/01/28 10:23:20;;;;;;;;;;;11.50;99.90;;;;;;5029945;28;19911;-79
2022/01/28 10:25:55;;;;;;;;;;;12.00;99.90;;;;;;5012090;28;19924;-77
2022/01/28 10:28:21;;;;;;;;;;;12.60;99.90;;;;;;5028447;28;20397;-77
2022/01/28 10:30:46;;;;;;;;;;;12.90;99.90;;;;;;5028411;28;19914;-79
2022/01/28 10:33:16;;;;;;;;;;;13.00;99.30;;;;;;5029797;28;20394;-78
2022/01/28 10:36:02;;;;;;;;;;;13.00;99.00;;;;;;5029711;28;20027;-78
2022/01/28 10:38:32;;;;;;;;;;;13.00;98.90;;;;;;5027507;28;19908;-80
2022/01/28 10:41:15;;;;;;;;;;;12.80;98.40;;;;;;5023425;28;20264;-79
2022/01/28 10:43:41;;;;;;;;;;;12.70;98.70;;;;;;5028658;28;20279;-81
2022/01/28 10:46:07;;;;;;;;;;;12.90;99.30;;;;;;5028000;28;19909;-77
2022/01/28 10:48:50;;;;;;;;;;;12.90;98.80;;;;;;5027692;28;19919;-77
2022/01/28 10:51:17;;;;;;;;;;;12.90;98.60;;;;;;5028378;28;20387;-76
2022/01/28 10:53:43;;;;;;;;;;;12.70;98.50;;;;;;5029297;28;19909;-73
2022/01/28 10:56:11;;;;;;;;;;;12.60;98.70;;;;;;5028483;28;19909;-72
2022/01/28 10:58:38;;;;;;;;;;;12.50;98.80;;;;;;5029190;28;19967;-75
2022/01/28 11:01:04;;;;;;;;;;;12.40;98.90;;;;;;5029441;28;19917;-76
2022/01/28 11:03:29;;;;;;;;;;;12.30;98.90;;;;;;5030222;28;19909;-77
2022/01/28 11:05:59;;;;;;;;;;;12.30;99.10;;;;;;5029301;28;20409;-75
2022/01/28 11:08:30;;;;;;;;;;;12.20;99.10;;;;;;5030010;28;19945;-75
2022/01/28 11:10:56;;;;;;;;;;;12.20;99.30;;;;;;5030700;28;19909;-76
2022/01/28 11:13:21;;;;;;;;;;;12.30;99.40;;;;;;5030115;28;19905;-76
2022/01/28 11:15:47;;;;;;;;;;;12.30;99.40;;;;;;5030692;28;19912;-76
2022/01/28 11:18:13;;;;;;;;;;;12.20;99.50;;;;;;5032305;28;19935;-74
2022/01/28 11:20:43;;;;;;;;;;;12.20;99.60;;;;;;5031940;28;19917;-73
2022/01/28 11:23:22;;;;;;;;;;;12.20;99.80;;;;;;5033761;28;19944;-75
2022/01/28 11:25:48;;;;;;;;;;;12.20;99.90;;;;;;5033341;28;19905;-73
2022/01/28 11:28:14;;;;;;;;;;;12.20;99.90;;;;;;5033625;28;19927;-76
2022/01/28 11:30:49;;;;;;;;;;;12.30;99.90;;;;;;5033627;28;19917;-75
2022/01/28 11:33:16;;;;;;;;;;;12.40;99.90;;;;;;5028162;28;20368;-75
2022/01/28 11:35:59;;;;;;;;;;;12.50;99.90;;;;;;5033584;28;19986;-72
2022/01/28 11:38:24;;;;;;;;;;;12.60;99.90;;;;;;5030677;28;19967;-74
2022/01/28 11:40:54;;;;;;;;;;;12.60;99.90;;;;;;5031198;28;19990;-74
2022/01/28 11:43:21;;;;;;;;;;;12.60;99.90;;;;;;5031448;28;20032;-75
2022/01/28 11:45:47;;;;;;;;;;;12.60;99.90;;;;;;5032486;28;19912;-75
2022/01/28 11:48:12;;;;;;;;;;;12.80;99.90;;;;;;5032447;28;19925;-75
2022/01/28 11:50:38;;;;;;;;;;;13.10;99.90;;;;;;5033178;28;19927;-78
2022/01/28 11:53:19;;;;;;;;;;;13.40;99.90;;;;;;5032673;28;19967;-76
2022/01/28 11:55:59;;;;;;;;;;;13.70;99.90;;;;;;5032159;28;20393;-76
2022/01/28 11:58:44;;;;;;;;;;;13.80;99.50;;;;;;5032288;28;19967;-78
2022/01/28 12:01:10;;;;;;;;;;;13.70;99.10;;;;;;5032098;28;19913;-78
2022/01/28 12:03:36;;;;;;;;;;;13.60;99.20;;;;;;5030414;28;20019;-77
2022/01/28 12:06:08;;;;;;;;;;;13.70;99.20;;;;;;5031866;28;19905;-79
2022/01/28 12:08:34;;;;;;;;;;;13.70;99.20;;;;;;5031588;28;19937;-82
2022/01/28 12:11:03;;;;;;;;;;;13.70;99.20;;;;;;5014780;28;19921;-81
2022/01/28 12:13:46;;;;;;;;;;;13.80;99.40;;;;;;5032455;28;19905;-79
2022/01/28 12:16:24;;;;;;;;;;;14.20;99.40;;;;;;5030906;28;20379;-81
2022/01/28 12:18:52;;;;;;;;;;;14.30;98.90;;;;;;5030885;28;19966;-80
2022/01/28 12:21:22;;;;;;;;;;;14.30;98.60;;;;;;5030690;28;19909;-79
2022/01/28 12:23:52;;;;;;;;;;;14.20;98.50;;;;;;5033547;28;19912;-81
2022/01/28 12:26:19;;;;;;;;;;;14.20;98.50;;;;;;5031387;28;19951;-80
2022/01/28 12:28:52;;;;;;;;;;;14.20;98.40;;;;;;5033636;28;20398;-81
2022/01/28 12:31:18;;;;;;;;;;;14.10;98.40;;;;;;5032102;28;19905;-79
2022/01/28 12:33:45;;;;;;;;;;;14.00;98.50;;;;;;5033661;28;19905;-80
2022/01/28 12:36:12;;;;;;;;;;;14.00;98.40;;;;;;5031941;28;20341;-78
2022/01/28 12:38:44;;;;;;;;;;;13.90;98.50;;;;;;5032817;28;19914;-70
2022/01/28 12:41:10;;;;;;;;;;;13.90;98.70;;;;;;5033082;28;19913;-79
2022/01/28 12:43:37;;;;;;;;;;;13.90;98.70;;;;;;5032145;28;20007;-79
2022/01/28 12:46:04;;;;;;;;;;;13.90;98.70;;;;;;5032187;28;19963;-75
2022/01/28 12:48:29;;;;;;;;;;;13.80;98.70;;;;;;5033351;28;19984;-75
2022/01/28 12:50:56;;;;;;;;;;;13.80;98.90;;;;;;5031357;28;20556;-76
2022/01/28 12:53:37;;;;;;;;;;;13.80;99.00;;;;;;5031112;28;19999;-78
2022/01/28 12:56:04;;;;;;;;;;;13.70;99.00;;;;;;5033528;28;19913;-78
2022/01/28 12:58:35;;;;;;;;;;;13.70;99.20;;;;;;5031649;28;19913;-74
2022/01/28 13:01:05;;;;;;;;;;;13.60;99.30;;;;;;5029309;28;19959;-75
2022/01/28 13:03:36;;;;;;;;;;;13.50;99.40;;;;;;5031678;28;19909;-74
2022/01/28 13:06:24;;;;;;;;;;;13.50;99.60;;;;;;5033602;28;19928;-78
2022/01/28 13:08:50;;;;;;;;;;;13.50;99.70;;;;;;5032990;28;20278;-76
2022/01/28 13:11:16;;;;;;;;;;;13.60;99.90;;;;;;5032038;28;19927;-77
2022/01/28 13:13:53;;;;;;;;;;;13.60;99.90;;;;;;5030437;28;19934;-77
2022/01/28 13:16:28;;;;;;;;;;;13.70;99.90;;;;;;5030615;28;20066;-77
2022/01/28 13:18:55;;;;;;;;;;;13.70;99.90;;;;;;5031508;28;19909;-74
2022/01/28 13:21:20;;;;;;;;;;;13.80;99.90;;;;;;5031080;28;19995;-78
2022/01/28 13:23:46;;;;;;;;;;;13.80;99.90;;;;;;5030302;28;19966;-81
2022/01/28 13:26:12;;;;;;;;;;;13.80;99.90;;;;;;5030017;28;20385;-79
2022/01/28 13:28:39;;;;;;;;;;;13.70;99.90;;;;;;5013357;28;19916;-80
2022/01/28 13:31:04;;;;;;;;;;;13.80;99.90;;;;;;5032109;28;19920;-79
2022/01/28 13:33:30;;;;;;;;;;;13.80;99.90;;;;;;5031574;28;19905;-81
2022/01/28 13:35:57;;;;;;;;;;;13.80;99.90;;;;;;5013242;28;19980;-79
2022/01/28 13:38:22;;;;;;;;;;;13.90;99.90;;;;;;5029425;28;20382;-78
2022/01/28 13:40:48;;;;;;;;;;;14.10;99.90;;;;;;5029759;28;19905;-79
2022/01/28 13:43:14;;;;;;;;;;;14.10;99.90;;;;;;5030044;28;19916;-77
2022/01/28 13:45:41;;;;;;;;;;;14.20;99.90;;;;;;5031312;28;19955;-77
2022/01/28 13:48:18;;;;;;;;;;;14.30;99.90;;;;;;5030994;28;20308;-78
2022/01/28 13:50:45;;;;;;;;;;;14.30;99.90;;;;;;5031225;28;19955;-78
2022/01/28 13:55:47;;;;;;;;;;;14.20;99.90;;;;;;5029936;28;19915;-76
2022/01/28 13:58:12;;;;;;;;;;;14.30;99.90;;;;;;5028401;28;19972;-74
2022/01/28 14:00:42;;;;;;;;;;;14.30;99.90;;;;;;5030225;28;19959;-73
2022/01/28 14:03:18;;;;;;;;;;;14.30;99.90;;;;;;5028731;28;19905;-75
2022/01/28 14:05:51;;;;;;;;;;;14.40;99.90;;;;;;5029114;28;20390;-76
2022/01/28 14:08:36;;;;;;;;;;;14.40;99.90;;;;;;5029467;28;19905;-77
2022/01/28 14:11:17;;;;;;;;;;;14.50;99.90;;;;;;5028850;28;20306;-79
2022/01/28 14:13:42;;;;;;;;;;;14.50;99.90;;;;;;5030171;28;19905;-79
2022/01/28 14:16:14;;;;;;;;;;;14.50;99.90;;;;;;5029449;28;19966;-79
2022/01/28 14:18:40;;;;;;;;;;;14.50;99.80;;;;;;5014552;28;19913;-77
2022/01/28 14:21:06;;;;;;;;;;;14.50;99.80;;;;;;5029730;28;19909;-79
2022/01/28 14:23:41;;;;;;;;;;;14.50;99.80;;;;;;5030520;28;20008;-80
2022/01/28 14:26:09;;;;;;;;;;;14.40;99.80;;;;;;5030933;28;19912;-83
2022/01/28 14:28:39;;;;;;;;;;;14.40;99.80;;;;;;5030130;28;19908;-80
2022/01/28 14:31:11;;;;;;;;;;;14.30;99.80;;;;;;5029890;28;19911;-77
2022/01/28 14:33:37;;;;;;;;;;;14.20;99.80;;;;;;5029301;28;19956;-78
2022/01/28 14:36:03;;;;;;;;;;;14.20;99.90;;;;;;5029005;28;19994;-75
2022/01/28 14:38:28;;;;;;;;;;;14.10;99.90;;;;;;5029477;28;19909;-79
2022/01/28 14:40:54;;;;;;;;;;;14.10;99.90;;;;;;5012905;28;19910;-78
2022/01/28 14:43:20;;;;;;;;;;;14.00;99.90;;;;;;5029616;28;20008;-79
2022/01/28 14:45:45;;;;;;;;;;;14.00;99.90;;;;;;5028616;28;19988;-79
2022/01/28 14:48:11;;;;;;;;;;;13.90;99.90;;;;;;5029282;28;20300;-79
2022/01/28 14:50:37;;;;;;;;;;;13.90;99.90;;;;;;5012599;28;19909;-81
2022/01/28 14:53:03;;;;;;;;;;;13.90;99.90;;;;;;5014079;28;19913;-80
2022/01/28 14:55:29;;;;;;;;;;;13.80;99.90;;;;;;5030200;28;19924;-78
2022/01/28 14:57:55;;;;;;;;;;;13.70;99.90;;;;;;5027810;28;19943;-77
2022/01/28 15:00:20;;;;;;;;;;;13.60;99.90;;;;;;5010456;28;19916;-78
2022/01/28 15:02:46;;;;;;;;;;;13.60;99.90;;;;;;5012007;28;20425;-78
2022/01/28 15:05:14;;;;;;;;;;;13.50;99.90;;;;;;5029403;28;19917;-80
2022/01/28 15:07:40;;;;;;;;;;;13.50;99.90;;;;;;5028582;28;19905;-79
2022/01/28 15:10:07;;;;;;;;;;;13.50;99.90;;;;;;5026444;28;19905;-81
2022/01/28 15:12:33;;;;;;;;;;;13.50;99.90;;;;;;5028737;28;20340;-77
2022/01/28 15:14:59;;;;;;;;;;;13.50;99.90;;;;;;5029703;28;19909;-79
2022/01/28 15:17:27;;;;;;;;;;;13.40;99.90;;;;;;5028205;28;20255;-79
2022/01/28 15:19:52;;;;;;;;;;;13.40;99.90;;;;;;5027642;28;19917;-77
2022/01/28 15:22:18;;;;;;;;;;;13.40;99.90;;;;;;5028823;28;20405;-79
2022/01/28 15:24:44;;;;;;;;;;;13.40;99.90;;;;;;5027625;28;19990;-77
2022/01/28 15:27:10;;;;;;;;;;;13.40;99.90;;;;;;5011664;28;19909;-79
2022/01/28 15:29:48;;;;;;;;;;;13.40;99.90;;;;;;5028695;28;19909;-79
2022/01/28 15:37:45;;;;;;;;;;;13.40;99.90;;;;;;5030859;28;20004;-79
2022/01/28 15:40:12;;;;;;;;;;;13.40;99.90;;;;;;5028348;28;19992;-79
2022/01/28 15:42:37;;;;;;;;;;;13.40;99.90;;;;;;5028226;28;19927;-77
2022/01/28 15:45:03;;;;;;;;;;;13.40;99.90;;;;;;5029008;28;20311;-77
2022/01/28 15:47:28;;;;;;;;;;;13.40;99.90;;;;;;5028460;28;19924;-79
2022/01/28 15:49:54;;;;;;;;;;;13.50;99.90;;;;;;5010827;28;19948;-78
2022/01/28 15:52:20;;;;;;;;;;;13.40;99.90;;;;;;5027906;28;19905;-76
2022/01/28 15:54:45;;;;;;;;;;;13.40;99.90;;;;;;5028644;28;19909;-76
2022/01/28 15:57:11;;;;;;;;;;;13.30;99.90;;;;;;5026893;28;19999;-73
2022/01/28 15:59:37;;;;;;;;;;;13.30;99.90;;;;;;5025188;28;19913;-80
2022/01/28 16:02:03;;;;;;;;;;;13.20;99.90;;;;;;5029706;28;19989;-76
2022/01/28 16:04:28;;;;;;;;;;;13.20;99.90;;;;;;5032347;28;19916;-74